sensor_id;sensor_type;location;lat;lon;timestamp;pressure;altitude;pressure_sealevel;temperature;humidity
37778;BME280;23615;51.506;7.678;2023-03-25T00:00:49;98750.94;;;8.92;97.19
37778;BME280;23615;51.506;7.678;2023-03-25T00:03:17;98748.75;;;9.06;96.72
37778;BME280;23615;51.506;7.678;2023-03-25T00:05:42;98748.78;;;8.89;97.21
37778;BME280;23615;51.506;7.678;2023-03-25T00:08:08;98755.84;;;9.00;98.65
37778;BME280;23615;51.506;7.678;2023-03-25T00:10:33;98751.59;;;8.83;97.83
37778;BME280;23615;51.506;7.678;2023-03-25T00:12:58;98748.22;;;8.71;98.38
37778;BME280;23615;51.506;7.678;2023-03-25T00:15:28;98748.44;;;8.86;98.88
37778;BME280;23615;51.506;7.678;2023-03-25T00:17:54;98757.84;;;8.93;98.14
37778;BME280;23615;51.506;7.678;2023-03-25T00:20:19;98756.25;;;8.76;98.41
37778;BME280;23615;51.506;7.678;2023-03-25T00:22:45;98753.84;;;8.91;97.54
37778;BME280;23615;51.506;7.678;2023-03-25T00:25:13;98750.06;;;8.87;97.44
37778;BME280;23615;51.506;7.678;2023-03-25T00:27:43;98753.13;;;8.79;97.16
37778;BME280;23615;51.506;7.678;2023-03-25T00:30:10;98742.16;;;8.75;96.61
37778;BME280;23615;51.506;7.678;2023-03-25T00:32:36;98749.19;;;8.81;95.96
37778;BME280;23615;51.506;7.678;2023-03-25T00:35:01;98740.16;;;8.82;94.52
37778;BME280;23615;51.506;7.678;2023-03-25T00:37:26;98735.38;;;8.84;94.55
37778;BME280;23615;51.506;7.678;2023-03-25T00:39:51;98745.00;;;8.69;94.75
37778;BME280;23615;51.506;7.678;2023-03-25T00:42:17;98755.22;;;8.77;94.46
37778;BME280;23615;51.506;7.678;2023-03-25T00:44:50;98749.19;;;8.81;94.16
37778;BME280;23615;51.506;7.678;2023-03-25T00:47:15;98758.53;;;8.67;94.22
37778;BME280;23615;51.506;7.678;2023-03-25T00:49:43;98752.41;;;8.67;94.77
37778;BME280;23615;51.506;7.678;2023-03-25T00:52:08;98746.66;;;8.75;94.22
37778;BME280;23615;51.506;7.678;2023-03-25T00:54:33;98748.13;;;8.66;94.40
37778;BME280;23615;51.506;7.678;2023-03-25T00:56:58;98754.41;;;8.59;94.79
37778;BME280;23615;51.506;7.678;2023-03-25T00:59:24;98752.50;;;8.72;93.82
37778;BME280;23615;51.506;7.678;2023-03-25T01:01:49;98752.72;;;8.53;94.71
37778;BME280;23615;51.506;7.678;2023-03-25T01:04:17;98756.94;;;8.83;93.64
37778;BME280;23615;51.506;7.678;2023-03-25T01:06:43;98754.41;;;8.76;92.85
37778;BME280;23615;51.506;7.678;2023-03-25T01:09:13;98753.13;;;8.79;93.50
37778;BME280;23615;51.506;7.678;2023-03-25T01:11:39;98750.44;;;8.95;92.71
37778;BME280;23615;51.506;7.678;2023-03-25T01:14:08;98753.34;;;8.94;92.78
37778;BME280;23615;51.506;7.678;2023-03-25T01:16:35;98745.63;;;8.76;93.18
37778;BME280;23615;51.506;7.678;2023-03-25T01:19:01;98763.97;;;8.94;92.94
37778;BME280;23615;51.506;7.678;2023-03-25T01:21:27;98746.16;;;8.94;93.35
37778;BME280;23615;51.506;7.678;2023-03-25T01:23:52;98746.13;;;8.89;92.88
37778;BME280;23615;51.506;7.678;2023-03-25T01:26:17;98737.75;;;8.81;93.60
37778;BME280;23615;51.506;7.678;2023-03-25T01:28:44;98747.75;;;8.74;94.09
37778;BME280;23615;51.506;7.678;2023-03-25T01:31:12;98750.47;;;8.79;93.49
37778;BME280;23615;51.506;7.678;2023-03-25T01:33:38;98744.75;;;8.87;92.71
37778;BME280;23615;51.506;7.678;2023-03-25T01:36:04;98735.66;;;8.83;93.20
37778;BME280;23615;51.506;7.678;2023-03-25T01:38:35;98744.88;;;8.97;92.44
37778;BME280;23615;51.506;7.678;2023-03-25T01:41:01;98732.81;;;8.89;92.56
37778;BME280;23615;51.506;7.678;2023-03-25T01:43:26;98733.91;;;8.93;93.09
37778;BME280;23615;51.506;7.678;2023-03-25T01:45:51;98735.72;;;8.88;92.86
37778;BME280;23615;51.506;7.678;2023-03-25T01:50:52;98730.63;;;8.86;93.33
37778;BME280;23615;51.506;7.678;2023-03-25T01:53:18;98722.75;;;8.91;93.38
37778;BME280;23615;51.506;7.678;2023-03-25T01:55:44;98719.44;;;8.84;92.94
37778;BME280;23615;51.506;7.678;2023-03-25T01:58:12;98724.91;;;8.94;92.93
37778;BME280;23615;51.506;7.678;2023-03-25T02:00:41;98721.28;;;9.00;92.78
37778;BME280;23615;51.506;7.678;2023-03-25T02:03:08;98721.28;;;8.84;92.56
37778;BME280;23615;51.506;7.678;2023-03-25T02:05:47;98722.75;;;8.91;92.74
37778;BME280;23615;51.506;7.678;2023-03-25T02:08:16;98721.38;;;8.89;92.49
37778;BME280;23615;51.506;7.678;2023-03-25T02:10:46;98724.50;;;8.86;92.81
37778;BME280;23615;51.506;7.678;2023-03-25T02:13:12;98725.41;;;8.91;92.21
37778;BME280;23615;51.506;7.678;2023-03-25T02:18:25;98712.72;;;8.98;91.41
37778;BME280;23615;51.506;7.678;2023-03-25T02:29:36;98730.72;;;8.91;90.91
37778;BME280;23615;51.506;7.678;2023-03-25T02:32:18;98726.41;;;9.07;89.50
37778;BME280;23615;51.506;7.678;2023-03-25T02:35:03;98718.03;;;8.98;89.19
37778;BME280;23615;51.506;7.678;2023-03-25T02:40:53;98714.09;;;9.01;89.16
37778;BME280;23615;51.506;7.678;2023-03-25T02:43:32;98716.84;;;8.89;88.72
37778;BME280;23615;51.506;7.678;2023-03-25T02:46:04;98716.91;;;8.94;89.06
37778;BME280;23615;51.506;7.678;2023-03-25T02:50:59;98717.16;;;8.93;88.77
37778;BME280;23615;51.506;7.678;2023-03-25T02:53:30;98723.22;;;8.88;89.03
37778;BME280;23615;51.506;7.678;2023-03-25T02:56:01;98717.00;;;8.99;88.21
37778;BME280;23615;51.506;7.678;2023-03-25T02:58:28;98712.97;;;8.97;88.17
37778;BME280;23615;51.506;7.678;2023-03-25T03:00:55;98711.56;;;9.11;87.19
37778;BME280;23615;51.506;7.678;2023-03-25T03:03:23;98709.88;;;9.05;87.87
37778;BME280;23615;51.506;7.678;2023-03-25T03:05:50;98710.44;;;9.07;86.68
37778;BME280;23615;51.506;7.678;2023-03-25T03:08:34;98698.38;;;8.99;87.16
37778;BME280;23615;51.506;7.678;2023-03-25T03:16:20;98703.38;;;8.96;87.89
37778;BME280;23615;51.506;7.678;2023-03-25T03:18:56;98706.59;;;8.98;88.16
37778;BME280;23615;51.506;7.678;2023-03-25T03:21:39;98705.09;;;8.85;88.29
37778;BME280;23615;51.506;7.678;2023-03-25T03:29:35;98709.06;;;9.05;87.83
37778;BME280;23615;51.506;7.678;2023-03-25T03:32:17;98704.13;;;8.91;87.79
37778;BME280;23615;51.506;7.678;2023-03-25T03:35:00;98704.06;;;8.70;88.52
37778;BME280;23615;51.506;7.678;2023-03-25T03:37:31;98703.97;;;8.81;88.89
37778;BME280;23615;51.506;7.678;2023-03-25T03:40:00;98693.88;;;9.00;88.16
37778;BME280;23615;51.506;7.678;2023-03-25T03:42:34;98703.94;;;8.98;88.43
37778;BME280;23615;51.506;7.678;2023-03-25T03:45:07;98696.94;;;8.92;87.69
37778;BME280;23615;51.506;7.678;2023-03-25T03:47:38;98695.41;;;8.96;87.79
37778;BME280;23615;51.506;7.678;2023-03-25T03:50:09;98709.50;;;8.96;87.51
37778;BME280;23615;51.506;7.678;2023-03-25T03:52:40;98707.03;;;8.90;87.34
37778;BME280;23615;51.506;7.678;2023-03-25T03:55:10;98702.13;;;8.82;87.62
37778;BME280;23615;51.506;7.678;2023-03-25T03:57:43;98715.47;;;8.87;87.20
37778;BME280;23615;51.506;7.678;2023-03-25T04:00:26;98704.50;;;8.83;87.58
37778;BME280;23615;51.506;7.678;2023-03-25T04:02:57;98705.84;;;8.81;87.79
37778;BME280;23615;51.506;7.678;2023-03-25T04:05:25;98717.28;;;8.81;87.98
37778;BME280;23615;51.506;7.678;2023-03-25T04:07:59;98719.44;;;8.84;88.69
37778;BME280;23615;51.506;7.678;2023-03-25T04:10:40;98703.81;;;8.71;90.22
37778;BME280;23615;51.506;7.678;2023-03-25T04:13:11;98703.50;;;8.68;90.27
37778;BME280;23615;51.506;7.678;2023-03-25T04:15:38;98717.03;;;8.66;90.89
37778;BME280;23615;51.506;7.678;2023-03-25T04:18:03;98713.84;;;8.64;90.82
37778;BME280;23615;51.506;7.678;2023-03-25T04:20:30;98704.00;;;8.65;91.23
37778;BME280;23615;51.506;7.678;2023-03-25T04:22:59;98716.31;;;8.71;90.44
37778;BME280;23615;51.506;7.678;2023-03-25T04:25:24;98723.81;;;8.74;89.99
37778;BME280;23615;51.506;7.678;2023-03-25T04:27:51;98716.13;;;8.77;90.28
37778;BME280;23615;51.506;7.678;2023-03-25T04:30:18;98721.06;;;8.69;89.57
37778;BME280;23615;51.506;7.678;2023-03-25T04:32:45;98708.00;;;8.67;90.05
37778;BME280;23615;51.506;7.678;2023-03-25T04:35:15;98707.72;;;8.63;90.71
37778;BME280;23615;51.506;7.678;2023-03-25T04:37:41;98713.84;;;8.64;89.99
37778;BME280;23615;51.506;7.678;2023-03-25T04:40:10;98711.06;;;8.59;89.53
37778;BME280;23615;51.506;7.678;2023-03-25T04:42:38;98710.84;;;8.60;90.04
37778;BME280;23615;51.506;7.678;2023-03-25T04:45:07;98709.41;;;8.53;89.50
37778;BME280;23615;51.506;7.678;2023-03-25T04:47:33;98711.00;;;8.54;89.52
37778;BME280;23615;51.506;7.678;2023-03-25T04:49:59;98708.13;;;8.55;89.79
37778;BME280;23615;51.506;7.678;2023-03-25T04:52:25;98710.44;;;8.69;88.81
37778;BME280;23615;51.506;7.678;2023-03-25T04:54:51;98715.19;;;8.50;89.51
37778;BME280;23615;51.506;7.678;2023-03-25T04:57:16;98710.44;;;8.69;89.11
37778;BME280;23615;51.506;7.678;2023-03-25T04:59:42;98714.38;;;8.66;88.38
37778;BME280;23615;51.506;7.678;2023-03-25T05:02:09;98712.34;;;8.56;88.79
37778;BME280;23615;51.506;7.678;2023-03-25T05:04:38;98704.88;;;8.53;88.55
37778;BME280;23615;51.506;7.678;2023-03-25T05:07:06;98705.53;;;8.60;89.07
37778;BME280;23615;51.506;7.678;2023-03-25T05:09:31;98707.16;;;8.45;89.37
37778;BME280;23615;51.506;7.678;2023-03-25T05:11:57;98695.31;;;8.52;89.35
37778;BME280;23615;51.506;7.678;2023-03-25T05:14:22;98696.59;;;8.50;88.66
37778;BME280;23615;51.506;7.678;2023-03-25T05:16:48;98697.56;;;8.44;89.26
37778;BME280;23615;51.506;7.678;2023-03-25T05:19:14;98682.09;;;8.41;89.61
37778;BME280;23615;51.506;7.678;2023-03-25T05:21:40;98691.44;;;8.43;90.07
37778;BME280;23615;51.506;7.678;2023-03-25T05:24:10;98693.44;;;8.53;89.65
37778;BME280;23615;51.506;7.678;2023-03-25T05:26:38;98687.22;;;8.47;90.64
37778;BME280;23615;51.506;7.678;2023-03-25T05:29:05;98694.75;;;8.34;90.50
37778;BME280;23615;51.506;7.678;2023-03-25T05:31:31;98693.50;;;8.24;91.40
37778;BME280;23615;51.506;7.678;2023-03-25T05:33:56;98690.22;;;8.34;90.94
37778;BME280;23615;51.506;7.678;2023-03-25T05:36:22;98701.91;;;8.33;90.79
37778;BME280;23615;51.506;7.678;2023-03-25T05:38:49;98699.31;;;8.38;90.41
37778;BME280;23615;51.506;7.678;2023-03-25T05:41:15;98693.88;;;8.45;91.27
37778;BME280;23615;51.506;7.678;2023-03-25T05:43:43;98708.19;;;8.44;90.74
37778;BME280;23615;51.506;7.678;2023-03-25T05:46:15;98696.59;;;8.33;91.63
37778;BME280;23615;51.506;7.678;2023-03-25T05:48:41;98711.25;;;8.36;91.61
37778;BME280;23615;51.506;7.678;2023-03-25T05:51:13;98717.53;;;8.63;91.12
37778;BME280;23615;51.506;7.678;2023-03-25T05:53:39;98710.91;;;8.66;90.70
37778;BME280;23615;51.506;7.678;2023-03-25T05:56:05;98722.19;;;8.39;91.93
37778;BME280;23615;51.506;7.678;2023-03-25T05:58:31;98722.28;;;8.61;91.38
37778;BME280;23615;51.506;7.678;2023-03-25T06:00:57;98723.00;;;8.56;91.89
37778;BME280;23615;51.506;7.678;2023-03-25T06:03:23;98730.22;;;8.27;92.96
37778;BME280;23615;51.506;7.678;2023-03-25T06:05:50;98725.41;;;8.41;92.98
37778;BME280;23615;51.506;7.678;2023-03-25T06:08:16;98716.81;;;8.34;93.51
37778;BME280;23615;51.506;7.678;2023-03-25T06:10:41;98729.28;;;8.34;93.72
37778;BME280;23615;51.506;7.678;2023-03-25T06:13:09;98720.41;;;8.28;94.21
37778;BME280;23615;51.506;7.678;2023-03-25T06:15:35;98729.16;;;8.28;94.26
37778;BME280;23615;51.506;7.678;2023-03-25T06:18:03;98717.56;;;8.18;94.50
37778;BME280;23615;51.506;7.678;2023-03-25T06:20:29;98718.91;;;8.04;95.74
37778;BME280;23615;51.506;7.678;2023-03-25T06:22:54;98735.19;;;8.24;94.73
37778;BME280;23615;51.506;7.678;2023-03-25T06:25:20;98731.03;;;8.28;94.88
37778;BME280;23615;51.506;7.678;2023-03-25T06:27:47;98722.34;;;8.33;94.54
37778;BME280;23615;51.506;7.678;2023-03-25T06:30:16;98726.16;;;8.37;95.12
37778;BME280;23615;51.506;7.678;2023-03-25T06:32:42;98723.19;;;8.21;94.77
37778;BME280;23615;51.506;7.678;2023-03-25T06:35:08;98731.94;;;8.34;93.72
37778;BME280;23615;51.506;7.678;2023-03-25T06:37:34;98722.72;;;8.24;94.18
37778;BME280;23615;51.506;7.678;2023-03-25T06:40:00;98733.56;;;8.35;94.48
37778;BME280;23615;51.506;7.678;2023-03-25T06:42:26;98731.94;;;8.50;93.78
37778;BME280;23615;51.506;7.678;2023-03-25T06:44:52;98729.28;;;8.50;93.70
37778;BME280;23615;51.506;7.678;2023-03-25T06:47:18;98734.78;;;8.44;94.92
37778;BME280;23615;51.506;7.678;2023-03-25T06:49:44;98731.38;;;8.32;95.66
37778;BME280;23615;51.506;7.678;2023-03-25T06:52:09;98720.44;;;8.45;94.83
37778;BME280;23615;51.506;7.678;2023-03-25T06:54:36;98726.56;;;8.45;95.16
37778;BME280;23615;51.506;7.678;2023-03-25T06:57:01;98719.13;;;8.47;94.23
37778;BME280;23615;51.506;7.678;2023-03-25T06:59:27;98718.59;;;8.45;94.20
37778;BME280;23615;51.506;7.678;2023-03-25T07:01:52;98720.09;;;8.41;94.59
37778;BME280;23615;51.506;7.678;2023-03-25T07:04:17;98720.44;;;8.45;94.00
37778;BME280;23615;51.506;7.678;2023-03-25T07:06:42;98728.25;;;8.51;94.50
37778;BME280;23615;51.506;7.678;2023-03-25T07:09:08;98733.47;;;8.63;93.78
37778;BME280;23615;51.506;7.678;2023-03-25T07:11:33;98728.97;;;8.63;93.71
37778;BME280;23615;51.506;7.678;2023-03-25T07:13:59;98731.13;;;8.67;93.70
37778;BME280;23615;51.506;7.678;2023-03-25T07:16:25;98736.84;;;8.58;93.76
37778;BME280;23615;51.506;7.678;2023-03-25T07:18:51;98732.25;;;8.71;93.51
37778;BME280;23615;51.506;7.678;2023-03-25T07:21:17;98748.69;;;8.68;93.30
37778;BME280;23615;51.506;7.678;2023-03-25T07:23:43;98755.81;;;8.62;94.05
37778;BME280;23615;51.506;7.678;2023-03-25T07:26:09;98730.72;;;8.58;95.60
37778;BME280;23615;51.506;7.678;2023-03-25T07:28:34;98750.06;;;8.53;95.98
37778;BME280;23615;51.506;7.678;2023-03-25T07:31:05;98756.50;;;8.41;95.88
37778;BME280;23615;51.506;7.678;2023-03-25T07:33:30;98787.88;;;8.27;96.79
37778;BME280;23615;51.506;7.678;2023-03-25T07:35:55;98763.03;;;8.21;96.43
37778;BME280;23615;51.506;7.678;2023-03-25T07:38:21;98756.69;;;8.22;97.95
37778;BME280;23615;51.506;7.678;2023-03-25T07:40:46;98763.19;;;8.15;98.15
37778;BME280;23615;51.506;7.678;2023-03-25T07:43:11;98764.81;;;8.16;98.40
37778;BME280;23615;51.506;7.678;2023-03-25T07:45:36;98761.25;;;8.39;97.70
37778;BME280;23615;51.506;7.678;2023-03-25T07:48:02;98772.13;;;8.37;97.18
37778;BME280;23615;51.506;7.678;2023-03-25T07:50:27;98762.63;;;8.41;97.83
37778;BME280;23615;51.506;7.678;2023-03-25T07:52:54;98757.00;;;8.54;96.78
37778;BME280;23615;51.506;7.678;2023-03-25T07:55:20;98757.56;;;8.73;96.70
37778;BME280;23615;51.506;7.678;2023-03-25T07:57:45;98759.25;;;8.62;96.63
37778;BME280;23615;51.506;7.678;2023-03-25T08:00:11;98761.97;;;8.84;96.28
37778;BME280;23615;51.506;7.678;2023-03-25T08:02:36;98760.03;;;8.96;96.17
37778;BME280;23615;51.506;7.678;2023-03-25T08:05:03;98758.66;;;8.94;96.82
37778;BME280;23615;51.506;7.678;2023-03-25T08:07:30;98758.81;;;9.04;95.53
37778;BME280;23615;51.506;7.678;2023-03-25T08:09:55;98766.16;;;8.97;95.68
37778;BME280;23615;51.506;7.678;2023-03-25T08:12:20;98770.59;;;9.08;95.04
37778;BME280;23615;51.506;7.678;2023-03-25T08:14:46;98773.41;;;9.01;93.75
37778;BME280;23615;51.506;7.678;2023-03-25T08:17:11;98761.72;;;9.02;93.59
37778;BME280;23615;51.506;7.678;2023-03-25T08:19:36;98772.22;;;9.09;93.09
37778;BME280;23615;51.506;7.678;2023-03-25T08:22:02;98770.69;;;8.96;92.38
37778;BME280;23615;51.506;7.678;2023-03-25T08:24:27;98766.78;;;9.04;91.23
37778;BME280;23615;51.506;7.678;2023-03-25T08:26:55;98783.91;;;9.08;90.87
37778;BME280;23615;51.506;7.678;2023-03-25T08:29:20;98776.63;;;9.04;90.38
37778;BME280;23615;51.506;7.678;2023-03-25T08:31:46;98779.78;;;9.17;90.37
37778;BME280;23615;51.506;7.678;2023-03-25T08:34:16;98798.63;;;9.16;89.27
37778;BME280;23615;51.506;7.678;2023-03-25T08:36:41;98798.16;;;9.02;89.35
37778;BME280;23615;51.506;7.678;2023-03-25T08:39:07;98794.84;;;8.95;89.79
37778;BME280;23615;51.506;7.678;2023-03-25T08:41:36;98789.47;;;9.07;90.12
37778;BME280;23615;51.506;7.678;2023-03-25T08:44:02;98794.78;;;9.07;88.37
37778;BME280;23615;51.506;7.678;2023-03-25T08:46:28;98789.94;;;9.04;87.22
37778;BME280;23615;51.506;7.678;2023-03-25T08:48:53;98787.50;;;9.02;88.12
37778;BME280;23615;51.506;7.678;2023-03-25T08:51:18;98785.78;;;8.91;88.10
37778;BME280;23615;51.506;7.678;2023-03-25T08:53:43;98784.84;;;9.19;86.92
37778;BME280;23615;51.506;7.678;2023-03-25T08:56:09;98800.22;;;9.33;85.74
37778;BME280;23615;51.506;7.678;2023-03-25T08:58:35;98796.13;;;9.48;86.71
37778;BME280;23615;51.506;7.678;2023-03-25T09:01:00;98788.28;;;9.36;86.46
37778;BME280;23615;51.506;7.678;2023-03-25T09:03:26;98790.19;;;9.41;84.97
37778;BME280;23615;51.506;7.678;2023-03-25T09:05:51;98788.72;;;9.50;85.20
37778;BME280;23615;51.506;7.678;2023-03-25T09:08:17;98788.09;;;9.43;86.10
37778;BME280;23615;51.506;7.678;2023-03-25T09:10:42;98788.16;;;9.48;85.60
37778;BME280;23615;51.506;7.678;2023-03-25T09:13:08;98783.69;;;9.31;85.11
37778;BME280;23615;51.506;7.678;2023-03-25T09:15:33;98783.81;;;9.42;84.98
37778;BME280;23615;51.506;7.678;2023-03-25T09:17:58;98780.44;;;9.46;85.17
37778;BME280;23615;51.506;7.678;2023-03-25T09:20:24;98779.63;;;9.46;85.11
37778;BME280;23615;51.506;7.678;2023-03-25T09:22:49;98772.16;;;9.48;84.76
37778;BME280;23615;51.506;7.678;2023-03-25T09:25:15;98779.25;;;9.59;84.38
37778;BME280;23615;51.506;7.678;2023-03-25T09:27:40;98780.66;;;9.66;84.81
37778;BME280;23615;51.506;7.678;2023-03-25T09:30:08;98776.94;;;9.67;85.01
37778;BME280;23615;51.506;7.678;2023-03-25T09:32:33;98778.53;;;9.63;85.45
37778;BME280;23615;51.506;7.678;2023-03-25T09:34:59;98766.63;;;9.71;84.86
37778;BME280;23615;51.506;7.678;2023-03-25T09:37:24;98766.81;;;9.64;85.49
37778;BME280;23615;51.506;7.678;2023-03-25T09:39:50;98761.41;;;9.81;84.62
37778;BME280;23615;51.506;7.678;2023-03-25T09:47:34;98771.03;;;9.82;85.48
37778;BME280;23615;51.506;7.678;2023-03-25T09:50:04;98785.13;;;9.83;84.27
37778;BME280;23615;51.506;7.678;2023-03-25T09:52:42;98784.50;;;9.75;83.75
37778;BME280;23615;51.506;7.678;2023-03-25T09:55:15;98786.19;;;9.82;84.42
37778;BME280;23615;51.506;7.678;2023-03-25T09:57:47;98783.94;;;9.95;84.79
37778;BME280;23615;51.506;7.678;2023-03-25T10:00:19;98790.63;;;9.98;83.74
37778;BME280;23615;51.506;7.678;2023-03-25T10:03:12;98771.53;;;10.06;84.52
37778;BME280;23615;51.506;7.678;2023-03-25T10:08:32;98776.75;;;10.18;85.23
37778;BME280;23615;51.506;7.678;2023-03-25T10:11:13;98774.94;;;10.23;84.50
37778;BME280;23615;51.506;7.678;2023-03-25T10:14:08;98791.69;;;10.19;84.01
37778;BME280;23615;51.506;7.678;2023-03-25T10:16:48;98784.50;;;10.19;84.07
37778;BME280;23615;51.506;7.678;2023-03-25T10:19:32;98787.31;;;10.12;83.82
37778;BME280;23615;51.506;7.678;2023-03-25T10:24:43;98784.63;;;10.07;84.52
37778;BME280;23615;51.506;7.678;2023-03-25T10:27:39;98780.69;;;10.15;84.41
37778;BME280;23615;51.506;7.678;2023-03-25T10:32:39;98779.06;;;10.36;82.44
37778;BME280;23615;51.506;7.678;2023-03-25T10:35:11;98775.41;;;10.47;83.26
37778;BME280;23615;51.506;7.678;2023-03-25T10:37:40;98778.97;;;10.58;81.58
37778;BME280;23615;51.506;7.678;2023-03-25T10:40:30;98779.38;;;10.71;81.63
37778;BME280;23615;51.506;7.678;2023-03-25T10:43:24;98770.78;;;10.64;81.62
37778;BME280;23615;51.506;7.678;2023-03-25T10:45:54;98778.41;;;10.82;80.19
37778;BME280;23615;51.506;7.678;2023-03-25T10:48:27;98778.13;;;10.84;80.90
37778;BME280;23615;51.506;7.678;2023-03-25T10:51:08;98765.97;;;10.98;81.36
37778;BME280;23615;51.506;7.678;2023-03-25T10:53:35;98777.88;;;10.85;79.92
37778;BME280;23615;51.506;7.678;2023-03-25T10:56:06;98752.63;;;10.66;81.42
37778;BME280;23615;51.506;7.678;2023-03-25T10:58:36;98765.69;;;10.63;81.83
37778;BME280;23615;51.506;7.678;2023-03-25T11:01:10;98759.34;;;10.69;82.33
37778;BME280;23615;51.506;7.678;2023-03-25T11:03:38;98781.97;;;10.66;82.45
37778;BME280;23615;51.506;7.678;2023-03-25T11:06:05;98775.03;;;10.65;85.63
37778;BME280;23615;51.506;7.678;2023-03-25T11:08:30;98776.56;;;10.56;84.42
37778;BME280;23615;51.506;7.678;2023-03-25T11:10:56;98784.16;;;10.69;83.98
37778;BME280;23615;51.506;7.678;2023-03-25T11:13:26;98790.78;;;10.67;83.75
37778;BME280;23615;51.506;7.678;2023-03-25T11:15:54;98805.50;;;10.42;82.46
37778;BME280;23615;51.506;7.678;2023-03-25T11:18:27;98789.47;;;10.37;82.66
37778;BME280;23615;51.506;7.678;2023-03-25T11:21:02;98791.13;;;10.43;83.13
37778;BME280;23615;51.506;7.678;2023-03-25T11:23:32;98788.59;;;10.59;81.87
37778;BME280;23615;51.506;7.678;2023-03-25T11:26:36;98787.66;;;10.75;80.72
37778;BME280;23615;51.506;7.678;2023-03-25T11:29:12;98774.63;;;10.78;81.78
37778;BME280;23615;51.506;7.678;2023-03-25T11:31:40;98786.72;;;10.91;80.90
37778;BME280;23615;51.506;7.678;2023-03-25T11:36:58;98795.75;;;10.85;81.96
37778;BME280;23615;51.506;7.678;2023-03-25T11:41:51;98795.66;;;10.75;84.04
37778;BME280;23615;51.506;7.678;2023-03-25T11:44:49;98802.78;;;10.64;84.15
37778;BME280;23615;51.506;7.678;2023-03-25T11:47:21;98804.91;;;10.62;84.95
37778;BME280;23615;51.506;7.678;2023-03-25T11:49:51;98813.88;;;10.51;84.79
37778;BME280;23615;51.506;7.678;2023-03-25T11:52:20;98799.88;;;10.39;84.86
37778;BME280;23615;51.506;7.678;2023-03-25T11:54:46;98801.47;;;10.40;85.52
37778;BME280;23615;51.506;7.678;2023-03-25T11:57:18;98798.56;;;10.41;86.21
37778;BME280;23615;51.506;7.678;2023-03-25T11:59:46;98806.53;;;10.36;86.77
37778;BME280;23615;51.506;7.678;2023-03-25T12:04:57;98782.69;;;10.57;86.47
37778;BME280;23615;51.506;7.678;2023-03-25T12:07:24;98795.63;;;10.70;86.57
37778;BME280;23615;51.506;7.678;2023-03-25T12:09:55;98796.22;;;10.77;85.05
37778;BME280;23615;51.506;7.678;2023-03-25T12:15:21;98798.31;;;10.75;85.24
37778;BME280;23615;51.506;7.678;2023-03-25T12:26:52;98799.84;;;10.34;91.03
37778;BME280;23615;51.506;7.678;2023-03-25T12:37:38;98805.06;;;10.82;89.61
37778;BME280;23615;51.506;7.678;2023-03-25T12:43:03;98805.25;;;10.71;91.14
37778;BME280;23615;51.506;7.678;2023-03-25T12:46:01;98788.50;;;10.48;90.08
37778;BME280;23615;51.506;7.678;2023-03-25T12:51:38;98811.00;;;10.31;89.57
37778;BME280;23615;51.506;7.678;2023-03-25T12:59:11;98794.81;;;11.01;87.34
37778;BME280;23615;51.506;7.678;2023-03-25T13:07:02;98777.78;;;11.54;85.99
37778;BME280;23615;51.506;7.678;2023-03-25T13:12:50;98821.31;;;11.55;80.82
37778;BME280;23615;51.506;7.678;2023-03-25T13:15:20;98781.69;;;11.42;80.83
37778;BME280;23615;51.506;7.678;2023-03-25T13:18:16;98787.19;;;11.72;81.48
37778;BME280;23615;51.506;7.678;2023-03-25T13:20:50;98781.25;;;11.60;79.67
37778;BME280;23615;51.506;7.678;2023-03-25T13:23:20;98777.81;;;11.65;80.64
37778;BME280;23615;51.506;7.678;2023-03-25T13:25:51;98776.75;;;11.71;79.79
37778;BME280;23615;51.506;7.678;2023-03-25T13:28:34;98788.53;;;11.75;80.76
37778;BME280;23615;51.506;7.678;2023-03-25T13:31:05;98756.78;;;11.78;78.71
37778;BME280;23615;51.506;7.678;2023-03-25T13:33:35;98795.97;;;11.68;78.71
37778;BME280;23615;51.506;7.678;2023-03-25T13:36:14;98766.31;;;11.64;77.47
37778;BME280;23615;51.506;7.678;2023-03-25T13:38:55;98770.06;;;11.63;78.50
37778;BME280;23615;51.506;7.678;2023-03-25T13:41:29;98763.69;;;11.74;78.46
37778;BME280;23615;51.506;7.678;2023-03-25T13:44:10;98763.66;;;11.69;77.43
37778;BME280;23615;51.506;7.678;2023-03-25T13:46:40;98746.81;;;11.63;78.55
37778;BME280;23615;51.506;7.678;2023-03-25T13:49:27;98751.06;;;11.59;77.81
37778;BME280;23615;51.506;7.678;2023-03-25T13:51:54;98752.44;;;11.67;78.16
37778;BME280;23615;51.506;7.678;2023-03-25T13:54:22;98754.78;;;11.58;78.06
37778;BME280;23615;51.506;7.678;2023-03-25T13:57:01;98749.69;;;11.52;80.11
37778;BME280;23615;51.506;7.678;2023-03-25T13:59:59;98788.50;;;11.17;82.22
37778;BME280;23615;51.506;7.678;2023-03-25T14:10:46;98789.00;;;11.14;80.78
37778;BME280;23615;51.506;7.678;2023-03-25T14:15:59;98784.63;;;10.98;81.98
37778;BME280;23615;51.506;7.678;2023-03-25T14:18:26;98786.13;;;11.21;80.35
37778;BME280;23615;51.506;7.678;2023-03-25T14:21:10;98799.53;;;11.31;78.93
37778;BME280;23615;51.506;7.678;2023-03-25T14:23:36;98775.72;;;11.19;78.56
37778;BME280;23615;51.506;7.678;2023-03-25T14:26:03;98789.81;;;11.15;78.93
37778;BME280;23615;51.506;7.678;2023-03-25T14:28:42;98790.13;;;11.18;79.33
37778;BME280;23615;51.506;7.678;2023-03-25T14:39:36;98801.38;;;10.88;79.34
37778;BME280;23615;51.506;7.678;2023-03-25T14:44:23;98815.88;;;11.03;80.00
37778;BME280;23615;51.506;7.678;2023-03-25T14:46:59;98809.78;;;11.07;79.80
37778;BME280;23615;51.506;7.678;2023-03-25T14:49:49;98816.59;;;10.88;79.98
37778;BME280;23615;51.506;7.678;2023-03-25T14:52:17;98822.78;;;10.67;80.05
37778;BME280;23615;51.506;7.678;2023-03-25T14:54:49;98829.88;;;10.51;82.02
37778;BME280;23615;51.506;7.678;2023-03-25T14:57:21;98835.16;;;10.46;81.90
37778;BME280;23615;51.506;7.678;2023-03-25T14:59:50;98822.28;;;10.38;83.14
37778;BME280;23615;51.506;7.678;2023-03-25T15:02:26;98820.59;;;10.32;83.46
37778;BME280;23615;51.506;7.678;2023-03-25T15:05:02;98831.22;;;10.27;84.29
37778;BME280;23615;51.506;7.678;2023-03-25T15:07:47;98847.00;;;10.11;86.41
37778;BME280;23615;51.506;7.678;2023-03-25T15:10:33;98862.75;;;9.91;89.69
37778;BME280;23615;51.506;7.678;2023-03-25T15:18:12;98829.91;;;9.25;95.83